This is the latest recevied weather packets stored in our database for station/object WA7CUG. If no packets are shown the sender has not sent any weather packets the latest 10 day(s).
| Time | Temp. | Humidity | Pressure | Rain* | Wind** | Luminosity | Snow |
|---|---|---|---|---|---|---|---|
| 1778205503 | 25.56° C | 35% | 1011 hPa | 0 mm | - | 63 W/m² | - |
| 1778205201 | 25.56° C | 35% | 1011 hPa | 0 mm | - | 68 W/m² | - |
| 1778204897 | 25.56° C | 37% | 1010.9 hPa | 0 mm | - | 74 W/m² | - |
| 1778204594 | 26.67° C | 35% | 1010.8 hPa | 0 mm | - | 78 W/m² | - |
| 1778204290 | 26.67° C | 36% | 1010.9 hPa | 0 mm | - | 84 W/m² | - |
| 1778203986 | 27.22° C | 34% | 1010.7 hPa | 0 mm | - | 96 W/m² | - |
| 1778203684 | 27.22° C | 32% | 1010.9 hPa | 0 mm | - | 127 W/m² | - |
| 1778203381 | 27.22° C | 32% | 1011 hPa | 0 mm | - | 140 W/m² | - |
| 1778203079 | 27.22° C | 32% | 1011 hPa | 0 mm | - | 164 W/m² | - |
| 1778202776 | 27.78° C | 32% | 1011.1 hPa | 0 mm | - | 189 W/m² | - |
| 1778202473 | 28.33° C | 30% | 1011 hPa | 0 mm | - | 208 W/m² | - |
| 1778202171 | 28.33° C | 32% | 1011.1 hPa | 0 mm | - | 229 W/m² | - |
| 1778201867 | 27.78° C | 30% | 1011.2 hPa | 0 mm | - | 231 W/m² | - |
| 1778201564 | 28.33° C | 30% | 1011.3 hPa | 0 mm | - | 269 W/m² | - |
| 1778201259 | 28.33° C | 32% | 1011.2 hPa | 0 mm | - | 275 W/m² | - |
| 1778200956 | 28.89° C | 33% | 1011.4 hPa | 0 mm | - | 253 W/m² | - |
| 1778200653 | 28.33° C | 31% | 1011.3 hPa | 0 mm | - | 239 W/m² | - |
| 1778200350 | 29.44° C | 29% | 1011.2 hPa | 0 mm | - | 245 W/m² | - |
| 1778200047 | 29.44° C | 32% | 1011.3 hPa | 0 mm | - | 271 W/m² | - |
| 1778199744 | 29.44° C | 28% | 1011.7 hPa | 0 mm | - | 354 W/m² | - |
| 1778199440 | 28.89° C | 33% | 1011.5 hPa | 0 mm | - | 372 W/m² | - |
| 1778199136 | 28.33° C | 30% | 1011.7 hPa | 0 mm | - | 351 W/m² | - |
| 1778198832 | 28.89° C | 32% | 1011.2 hPa | 0 mm | - | 345 W/m² | - |
| 1778198529 | 29.44° C | 31% | 1011.8 hPa | 0 mm | - | 394 W/m² | - |
| 1778198225 | 29.44° C | 31% | 1011.8 hPa | 0 mm | - | 417 W/m² | - |
* Rain latest hour (hover to see other rain measurements)
** Current wind speed in m/s (hover to see current wind gust speed)